Home > Products > Valid Products > MTR

000
SAHW31 PHFO 241013
MTRITO
SPECI PHTO 241011Z 25004KT 10SM FEW018 SCT028 OVC039 23/22 A3009 RMK
AO2 RAE09 P0002 T02280217




000
SAHW31 PHFO 241013
MTRITO
SPECI PHTO 241011Z 25004KT 10SM FEW018 SCT028 OVC039 23/22 A3009 RMK
AO2 RAE09 P0002 T02280217





000
SAHW31 PHFO 240954
MTRITO
METAR PHTO 240953Z AUTO 28003KT 5SM RA BR SCT018 BKN024 OVC045 23/22
A3010 RMK AO2 RAE14B17 SLP190 P0002 T02280217 402890222 TSNO




000
SAHW31 PHFO 240954
MTRITO
METAR PHTO 240953Z AUTO 28003KT 5SM RA BR SCT018 BKN024 OVC045 23/22
A3010 RMK AO2 RAE14B17 SLP190 P0002 T02280217 402890222 TSNO





000
SAHW31 PHFO 240951
MTRITO
SPECI PHTO 240950Z AUTO 00000KT 7SM -RA SCT018 BKN024 OVC043 23/22
A3010 RMK AO2 RAE14B17 P0002 TSNO




000
SAHW31 PHFO 240951
MTRITO
SPECI PHTO 240950Z AUTO 00000KT 7SM -RA SCT018 BKN024 OVC043 23/22
A3010 RMK AO2 RAE14B17 P0002 TSNO





000
SAHW31 PHFO 240940
MTRITO
SPECI PHTO 240939Z AUTO 25007KT 10SM SCT023 BKN030 OVC065 23/22
A3009 RMK AO2 RAE14B17E38 P0002 T02280217 TSNO





000
SAHW31 PHFO 240940
MTRITO
SPECI PHTO 240939Z AUTO 25007KT 10SM SCT023 BKN030 OVC065 23/22
A3009 RMK AO2 RAE14B17E38 P0002 T02280217 TSNO




000
SAHW31 PHFO 240931
MTRITO
SPECI PHTO 240930Z AUTO 27007KT 10SM -RA BKN022 OVC032 23/22 A3010
RMK AO2 RAE14B17 P0002 T02280217 TSNO




000
SAHW31 PHFO 240931
MTRITO
SPECI PHTO 240930Z AUTO 27007KT 10SM -RA BKN022 OVC032 23/22 A3010
RMK AO2 RAE14B17 P0002 T02280217 TSNO





000
SAHW31 PHFO 240916
MTRITO
SPECI PHTO 240915Z AUTO 26007KT 10SM SCT025 OVC033 22/22 A3010 RMK
AO2 RAE14 P0002 T02220217 TSNO




000
SAHW31 PHFO 240916
MTRITO
SPECI PHTO 240915Z AUTO 26007KT 10SM SCT025 OVC033 22/22 A3010 RMK
AO2 RAE14 P0002 T02220217 TSNO





000
SAHW31 PHFO 240854
MTRITO
METAR PHTO 240853Z AUTO 28006KT 3SM RA BR FEW022 BKN029 OVC042 22/21
A3010 RMK AO2 RAB06 SLP192 P0003 60003 T02220211 51012 TSNO




000
SAHW31 PHFO 240854
MTRITO
METAR PHTO 240853Z AUTO 28006KT 3SM RA BR FEW022 BKN029 OVC042 22/21
A3010 RMK AO2 RAB06 SLP192 P0003 60003 T02220211 51012 TSNO





000
SAHW31 PHFO 240806
MTRITO
SPECI PHTO 240805Z AUTO 07014G20KT 10SM FEW009 OVC038 23/22 A3010
RMK AO2 T02330217 TSNO




000
SAHW31 PHFO 240806
MTRITO
SPECI PHTO 240805Z AUTO 07014G20KT 10SM FEW009 OVC038 23/22 A3010
RMK AO2 T02330217 TSNO





000
SAHW31 PHFO 240754
MTRITO
METAR PHTO 240753Z 07010G19KT 10SM FEW011 BKN038 OVC055 23/22 A3010
RMK AO2 SLP190 T02280217





000
SAHW31 PHFO 240754
MTRITO
METAR PHTO 240753Z 07010G19KT 10SM FEW011 BKN038 OVC055 23/22 A3010
RMK AO2 SLP190 T02280217




000
SAHW31 PHFO 240744
MTRITO
SPECI PHTO 240743Z 06011KT 10SM FEW009 BKN055 OVC065 24/22 A3009 RMK
AO2 T02390222





000
SAHW31 PHFO 240744
MTRITO
SPECI PHTO 240743Z 06011KT 10SM FEW009 BKN055 OVC065 24/22 A3009 RMK
AO2 T02390222




000
SAHW31 PHFO 240655
MTRITO
METAR PHTO 240653Z 07014KT 10SM OVC060 24/22 A3008 RMK AO2 RAB00E40
SLP184 P0000 T02390222




000
SAHW31 PHFO 240655
MTRITO
METAR PHTO 240653Z 07014KT 10SM OVC060 24/22 A3008 RMK AO2 RAB00E40
SLP184 P0000 T02390222





000
SAHW31 PHFO 240633
MTRITO
SPECI PHTO 240632Z 08010KT 10SM -RA FEW013 SCT036 OVC060 24/22 A3007
RMK AO2 RAB00 P0000 T02390222




000
SAHW31 PHFO 240633
MTRITO
SPECI PHTO 240632Z 08010KT 10SM -RA FEW013 SCT036 OVC060 24/22 A3007
RMK AO2 RAB00 P0000 T02390222





000
SAHW31 PHFO 240602
MTRITO
SPECI PHTO 240601Z 08011KT 10SM -RA SCT015 BKN021 OVC070 25/23 A3007
RMK AO2 RAB00 P0000 T02500228




000
SAHW31 PHFO 240602
MTRITO
SPECI PHTO 240601Z 08011KT 10SM -RA SCT015 BKN021 OVC070 25/23 A3007
RMK AO2 RAB00 P0000 T02500228





000
SAHW31 PHFO 240554
MTRITO
METAR PHTO 240553Z 07008KT 10SM FEW015 BKN030 OVC070 25/22 A3007 RMK
AO2 RAB10E19 SLP180 P0000 60006 T02500222 10289 20233 53016





000
SAHW31 PHFO 240554
MTRITO
METAR PHTO 240553Z 07008KT 10SM FEW015 BKN030 OVC070 25/22 A3007 RMK
AO2 RAB10E19 SLP180 P0000 60006 T02500222 10289 20233 53016




000
SAHW31 PHFO 240454
MTRITO
METAR PHTO 240453Z 05006KT 10SM FEW022 SCT044 BKN070 25/22 A3005 RMK
AO2 RAB31E44 SLP175 P0000 T02500222





000
SAHW31 PHFO 240454
MTRITO
METAR PHTO 240453Z 05006KT 10SM FEW022 SCT044 BKN070 25/22 A3005 RMK
AO2 RAB31E44 SLP175 P0000 T02500222




000
SAHW31 PHFO 240354
MTRITO
METAR PHTO 240353Z 05005KT 10SM FEW027 SCT036 OVC070 26/22 A3003 RMK
AO2 SLP168 T02610217




000
SAHW31 PHFO 240354
MTRITO
METAR PHTO 240353Z 05005KT 10SM FEW027 SCT036 OVC070 26/22 A3003 RMK
AO2 SLP168 T02610217





000
SAHW31 PHFO 240254
MTRITO
METAR PHTO 240253Z 28005KT 10SM SCT021 BKN040 OVC065 26/22 A3002 RMK
AO2 RAB27E41 SLP164 P0000 60006 T02560222 58009




000
SAHW31 PHFO 240254
MTRITO
METAR PHTO 240253Z 28005KT 10SM SCT021 BKN040 OVC065 26/22 A3002 RMK
AO2 RAB27E41 SLP164 P0000 60006 T02560222 58009





000
SAHW31 PHFO 240154
MTRITO
METAR PHTO 240153Z 31005KT 10SM BKN042 OVC049 25/21 A3003 RMK AO2
RAB05E53 SLP167 P0005 T02500211





000
SAHW31 PHFO 240154
MTRITO
METAR PHTO 240153Z 31005KT 10SM BKN042 OVC049 25/21 A3003 RMK AO2
RAB05E53 SLP167 P0005 T02500211




000
SAHW31 PHFO 240054
MTRITO
METAR PHTO 240053Z 11010KT 10SM FEW019 BKN044 OVC060 26/23 A3005 RMK
AO2 RAB27E44 SLP172 P0001 T02560228





000
SAHW31 PHFO 240054
MTRITO
METAR PHTO 240053Z 11010KT 10SM FEW019 BKN044 OVC060 26/23 A3005 RMK
AO2 RAB27E44 SLP172 P0001 T02560228




000
SAHW31 PHFO 232354
MTRITO
METAR PHTO 232353Z 04008KT 10SM OVC048 28/19 A3005 RMK AO2 SLP174
60000 T02780194 10289 20244 58008 $




000
SAHW31 PHFO 232354
MTRITO
METAR PHTO 232353Z 04008KT 10SM OVC048 28/19 A3005 RMK AO2 SLP174
60000 T02780194 10289 20244 58008 $





000
SAHW31 PHFO 232254
MTRITO
METAR PHTO 232253Z 03011KT 10SM SCT060 29/22 A3006 RMK AO2 SLP177
T02890222 $




000
SAHW31 PHFO 232154
MTRITO
METAR PHTO 232153Z 02009KT 10SM SCT060 29/22 A3007 RMK AO2 SLP180
T02890222





000
SAHW31 PHFO 232154
MTRITO
METAR PHTO 232153Z 02009KT 10SM SCT060 29/22 A3007 RMK AO2 SLP180
T02890222




000
SAHW31 PHFO 232054
MTRITO
METAR PHTO 232053Z 05009KT 10SM BKN065 28/22 A3007 RMK AO2 SLP182
60000 T02780217 50004




000
SAHW31 PHFO 232054
MTRITO
METAR PHTO 232053Z 05009KT 10SM BKN065 28/22 A3007 RMK AO2 SLP182
60000 T02780217 50004





000
SAHW31 PHFO 231954
MTRITO
METAR PHTO 231953Z 06008KT 10SM SCT026 SCT040 BKN060 28/22 A3008 RMK
AO2 RAB07E19 SLP183 P0000 T02780217





000
SAHW31 PHFO 231954
MTRITO
METAR PHTO 231953Z 06008KT 10SM SCT026 SCT040 BKN060 28/22 A3008 RMK
AO2 RAB07E19 SLP183 P0000 T02780217




000
SAHW31 PHFO 231854
MTRITO
METAR PHTO 231853Z 04005KT 10SM SCT022 BKN055 27/22 A3007 RMK AO2
RAE1754 SLP180 P0000 T02720222




000
SAHW31 PHFO 231854
MTRITO
METAR PHTO 231853Z 04005KT 10SM SCT022 BKN055 27/22 A3007 RMK AO2
RAE1754 SLP180 P0000 T02720222





000
SAHW31 PHFO 231754
MTRITO
METAR PHTO 231753Z 32004KT 10SM -RA SCT026 BKN055 24/22 A3006 RMK
AO2 RAE1655B45 SLP179 P0000 60011 T02440217 10244 20228 51018





000
SAHW31 PHFO 231654
MTRITO
METAR PHTO 231653Z 29006KT 10SM -RA SCT021 SCT028 BKN044 23/22 A3005
RMK AO2 RAB04 SLP174 P0000 T02330217




000
SAHW31 PHFO 231654
MTRITO
METAR PHTO 231653Z 29006KT 10SM -RA SCT021 SCT028 BKN044 23/22 A3005
RMK AO2 RAB04 SLP174 P0000 T02330217





000
SAHW31 PHFO 231607
MTRITO
SPECI PHTO 231606Z 26003KT 10SM -RA SCT024 BKN037 BKN055 23/22 A3003
RMK AO2 RAB04 P0000 T02330222





000
SAHW31 PHFO 231607
MTRITO
SPECI PHTO 231606Z 26003KT 10SM -RA SCT024 BKN037 BKN055 23/22 A3003
RMK AO2 RAB04 P0000 T02330222




000
SAHW31 PHFO 231554
MTRITO
METAR PHTO 231553Z 28005KT 10SM FEW017 BKN024 OVC047 23/22 A3003 RMK
AO2 RAB20E51 SLP167 P0005 T02330222





000
SAHW31 PHFO 231554
MTRITO
METAR PHTO 231553Z 28005KT 10SM FEW017 BKN024 OVC047 23/22 A3003 RMK
AO2 RAB20E51 SLP167 P0005 T02330222




000
SAHW31 PHFO 231534
MTRITO
SPECI PHTO 231532Z 31007KT 6SM -RA BR SCT017 BKN024 OVC043 23/22
A3002 RMK AO2 RAB20 P0003 T02330222




000
SAHW31 PHFO 231534
MTRITO
SPECI PHTO 231532Z 31007KT 6SM -RA BR SCT017 BKN024 OVC043 23/22
A3002 RMK AO2 RAB20 P0003 T02330222





000
SAHW31 PHFO 231516
MTRITO
SPECI PHTO 231514Z 27005KT 10SM SCT022 BKN030 OVC041 23/22 A3001 RMK
AO2 T02330222




000
SAHW31 PHFO 231516
MTRITO
SPECI PHTO 231514Z 27005KT 10SM SCT022 BKN030 OVC041 23/22 A3001 RMK
AO2 T02330222





000
SAHW31 PHFO 231454
MTRITO
METAR PHTO 231453Z 29004KT 10SM SCT022 BKN028 OVC034 23/22 A3001 RMK
AO2 RAE49 SLP161 P0006 60006 T02330222 56003





000
SAHW31 PHFO 231355
MTRITO
METAR PHTO 231353Z 27006KT 9SM -RA FEW017 OVC026 23/23 A3001 RMK AO2
RAB25 SLP161 P0000 T02330228




000
SAHW31 PHFO 231355
MTRITO
METAR PHTO 231353Z 27006KT 9SM -RA FEW017 OVC026 23/23 A3001 RMK AO2
RAB25 SLP161 P0000 T02330228





000
SAHW31 PHFO 231254
MTRITO
METAR PHTO 231253Z 00000KT 10SM OVC027 24/22 A3001 RMK AO2 SLP161
T02390222





000
SAHW31 PHFO 231254
MTRITO
METAR PHTO 231253Z 00000KT 10SM OVC027 24/22 A3001 RMK AO2 SLP161
T02390222




000
SAHW31 PHFO 231216
MTRITO
SPECI PHTO 231214Z 08007KT 10SM FEW020 BKN026 OVC033 24/22 A3001 RMK
AO2 T02390222




000
SAHW31 PHFO 231216
MTRITO
SPECI PHTO 231214Z 08007KT 10SM FEW020 BKN026 OVC033 24/22 A3001 RMK
AO2 T02390222





000
SAHW31 PHFO 231154
MTRITO
METAR PHTO 231153Z 08006KT 10SM BKN031 OVC046 24/22 A3002 RMK AO2
SLP163 60009 70012 T02390222 10250 20239 57008





000
SAHW31 PHFO 231154
MTRITO
METAR PHTO 231153Z 08006KT 10SM BKN031 OVC046 24/22 A3002 RMK AO2
SLP163 60009 70012 T02390222 10250 20239 57008




000
SAHW31 PHFO 231149
MTRITO
SPECI PHTO 231148Z 09006KT 10SM FEW018 BKN031 OVC046 24/22 A3002 RMK
AO2




000
SAHW31 PHFO 231149
MTRITO
SPECI PHTO 231148Z 09006KT 10SM FEW018 BKN031 OVC046 24/22 A3002 RMK
AO2





000
SAHW31 PHFO 231129
MTRITO
SPECI PHTO 231128Z 08009KT 10SM SCT012 BKN018 OVC026 24/23 A3003 RMK
AO2 T02390228




000
SAHW31 PHFO 231129
MTRITO
SPECI PHTO 231128Z 08009KT 10SM SCT012 BKN018 OVC026 24/23 A3003 RMK
AO2 T02390228





000
SAHW31 PHFO 231103
MTRITO
SPECI PHTO 231102Z 00000KT 10SM FEW009 BKN013 OVC045 24/23 A3004 RMK
AO2 T02390228




000
SAHW31 PHFO 231103
MTRITO
SPECI PHTO 231102Z 00000KT 10SM FEW009 BKN013 OVC045 24/23 A3004 RMK
AO2 T02390228





000
SAHW31 PHFO 231054
MTRITO
METAR PHTO 231053Z 24003KT 10SM BKN015 BKN020 OVC046 24/23 A3004 RMK
AO2 RAE17 SLP170 P0004 T02390228




000
SAHW31 PHFO 231054
MTRITO
METAR PHTO 231053Z 24003KT 10SM BKN015 BKN020 OVC046 24/23 A3004 RMK
AO2 RAE17 SLP170 P0004 T02390228





000
SAHW31 PHFO 231051
MTRITO
SPECI PHTO 231050Z 24003KT 10SM BKN015 BKN020 OVC046 24/23 A3004 RMK
AO2 RAE17 P0004





000
SAHW31 PHFO 231051
MTRITO
SPECI PHTO 231050Z 24003KT 10SM BKN015 BKN020 OVC046 24/23 A3004 RMK
AO2 RAE17 P0004




000
SAHW31 PHFO 231024
MTRITO
SPECI PHTO 231023Z 23004KT 10SM OVC014 24/23 A3005 RMK AO2 RAE17
P0004 T02390228




000
SAHW31 PHFO 231024
MTRITO
SPECI PHTO 231023Z 23004KT 10SM OVC014 24/23 A3005 RMK AO2 RAE17
P0004 T02390228





000
SAHW31 PHFO 230954
MTRITO
METAR PHTO 230953Z AUTO 27006KT 3SM RA BR BKN018 OVC025 24/23 A3006
RMK AO2 RAB43 SLP178 P0002 T02390228 402890222 TSNO





000
SAHW31 PHFO 230954
MTRITO
METAR PHTO 230953Z AUTO 27006KT 3SM RA BR BKN018 OVC025 24/23 A3006
RMK AO2 RAB43 SLP178 P0002 T02390228 402890222 TSNO




000
SAHW31 PHFO 230939
MTRITO
SPECI PHTO 230938Z AUTO 24004KT 10SM BKN023 BKN028 OVC046 24/23
A3007 RMK AO2 T02390228 TSNO




000
SAHW31 PHFO 230939
MTRITO
SPECI PHTO 230938Z AUTO 24004KT 10SM BKN023 BKN028 OVC046 24/23
A3007 RMK AO2 T02390228 TSNO





000
SAHW31 PHFO 230855
MTRITO
METAR PHTO 230853Z AUTO 00000KT 10SM FEW016 SCT028 OVC049 24/23
A3008 RMK AO2 RAE08 SLP183 P0001 60003 T02440228 50003 TSNO





000
SAHW31 PHFO 230855
MTRITO
METAR PHTO 230853Z AUTO 00000KT 10SM FEW016 SCT028 OVC049 24/23
A3008 RMK AO2 RAE08 SLP183 P0001 60003 T02440228 50003 TSNO




000
SAHW31 PHFO 230850
MTRITO
SPECI PHTO 230849Z AUTO 27003KT 10SM FEW016 SCT027 OVC046 24/23
A3008 RMK AO2 RAE08 P0001 TSNO




000
SAHW31 PHFO 230850
MTRITO
SPECI PHTO 230849Z AUTO 27003KT 10SM FEW016 SCT027 OVC046 24/23
A3008 RMK AO2 RAE08 P0001 TSNO





000
SAHW31 PHFO 230814
MTRITO
SPECI PHTO 230813Z AUTO 25005KT 10SM SCT013 BKN018 OVC026 24/23
A3008 RMK AO2 RAE08 P0001 T02390228 TSNO





000
SAHW31 PHFO 230814
MTRITO
SPECI PHTO 230813Z AUTO 25005KT 10SM SCT013 BKN018 OVC026 24/23
A3008 RMK AO2 RAE08 P0001 T02390228 TSNO




000
SAHW31 PHFO 230804
MTRITO
SPECI PHTO 230803Z AUTO 26004KT 10SM -RA BKN013 BKN026 OVC031 24/23
A3008 RMK AO2 P0001 T02390228 TSNO





000
SAHW31 PHFO 230804
MTRITO
SPECI PHTO 230803Z AUTO 26004KT 10SM -RA BKN013 BKN026 OVC031 24/23
A3008 RMK AO2 P0001 T02390228 TSNO




000
SAHW31 PHFO 230754
MTRITO
METAR PHTO 230753Z 21004KT 7SM -RA SCT013 BKN018 OVC033 25/23 A3008
RMK AO2 RAB29 SLP185 P0000 T02500228





000
SAHW31 PHFO 230754
MTRITO
METAR PHTO 230753Z 21004KT 7SM -RA SCT013 BKN018 OVC033 25/23 A3008
RMK AO2 RAB29 SLP185 P0000 T02500228




000
SAHW31 PHFO 230727
MTRITO
SPECI PHTO 230726Z 31004KT 10SM BKN020 BKN026 OVC033 24/23 A3008 RMK
AO2 T02440228




000
SAHW31 PHFO 230727
MTRITO
SPECI PHTO 230726Z 31004KT 10SM BKN020 BKN026 OVC033 24/23 A3008 RMK
AO2 T02440228





000
SAHW31 PHFO 230655
MTRITO
METAR PHTO 230653Z 22004KT 10SM BKN033 OVC042 24/23 A3007 RMK AO2
RAB17E40 SLP180 P0002 T02440233





000
SAHW31 PHFO 230640
MTRITO
SPECI PHTO 230639Z 20004KT 10SM -RA FEW020 OVC030 24/23 A3007 RMK
AO2 RAB17 P0001 T02440233





000
SAHW31 PHFO 230640
MTRITO
SPECI PHTO 230639Z 20004KT 10SM -RA FEW020 OVC030 24/23 A3007 RMK
AO2 RAB17 P0001 T02440233




000
SAHW31 PHFO 230618
MTRITO
SPECI PHTO 230617Z 00000KT 9SM -RA BKN020 BKN025 OVC032 25/23 A3006
RMK AO2 RAB17 P0000 T02500233





000
SAHW31 PHFO 230618
MTRITO
SPECI PHTO 230617Z 00000KT 9SM -RA BKN020 BKN025 OVC032 25/23 A3006
RMK AO2 RAB17 P0000 T02500233




000
SAHW31 PHFO 230609
MTRITO
SPECI PHTO 230607Z 26004KT 10SM SCT020 OVC030 25/23 A3006 RMK AO2
T02500233




000
SAHW31 PHFO 230609
MTRITO
SPECI PHTO 230607Z 26004KT 10SM SCT020 OVC030 25/23 A3006 RMK AO2
T02500233





000
SAHW31 PHFO 230554
MTRITO
METAR PHTO 230553Z 00000KT 10SM OVC029 25/23 A3006 RMK AO2 RAB05E22
SLP177 P0000 60003 T02500228 10278 20244 53010





000
SAHW31 PHFO 230554
MTRITO
METAR PHTO 230553Z 00000KT 10SM OVC029 25/23 A3006 RMK AO2 RAB05E22
SLP177 P0000 60003 T02500228 10278 20244 53010




000
SAHW31 PHFO 230507
MTRITO
SPECI PHTO 230506Z 04004KT 6SM -RA BR FEW012 BKN017 OVC039 25/23
A3005 RMK AO2 RAB05 P0000 T02500233




000
SAHW31 PHFO 230507
MTRITO
SPECI PHTO 230506Z 04004KT 6SM -RA BR FEW012 BKN017 OVC039 25/23
A3005 RMK AO2 RAB05 P0000 T02500233





000
SAHW31 PHFO 230454
MTRITO
METAR PHTO 230453Z 36003KT 10SM FEW017 FEW028 OVC038 26/23 A3005 RMK
AO2 SLP174 T02560228





000
SAHW31 PHFO 230454
MTRITO
METAR PHTO 230453Z 36003KT 10SM FEW017 FEW028 OVC038 26/23 A3005 RMK
AO2 SLP174 T02560228




000
SAHW31 PHFO 230433
MTRITO
SPECI PHTO 230432Z 00000KT 10SM SCT029 BKN036 OVC047 25/23 A3004 RMK
AO2 T02500228




000
SAHW31 PHFO 230433
MTRITO
SPECI PHTO 230432Z 00000KT 10SM SCT029 BKN036 OVC047 25/23 A3004 RMK
AO2 T02500228





000
SAHW31 PHFO 230433
MTRITO
SPECI PHTO 230432Z 00000KT 10SM SCT029 BKN036 OVC047 25/23 A3004 RMK
AO2 T02500228





000
SAHW31 PHFO 230433
MTRITO
SPECI PHTO 230432Z 00000KT 10SM SCT029 BKN036 OVC047 25/23 A3004 RMK
AO2 T02500228




000
SAHW31 PHFO 230414
MTRITO
SPECI PHTO 230413Z 10006KT 10SM BKN028 BKN036 OVC045 25/23 A3004 RMK
AO2 T02500228





000
SAHW31 PHFO 230414
MTRITO
SPECI PHTO 230413Z 10006KT 10SM BKN028 BKN036 OVC045 25/23 A3004 RMK
AO2 T02500228




000
SAHW31 PHFO 230354
MTRITO
METAR PHTO 230353Z 10008KT 10SM FEW013 BKN032 OVC043 25/23 A3003 RMK
AO2 RAB17E40 SLP167 P0003 T02500228




000
SAHW31 PHFO 230354
MTRITO
METAR PHTO 230353Z 10008KT 10SM FEW013 BKN032 OVC043 25/23 A3003 RMK
AO2 RAB17E40 SLP167 P0003 T02500228





000
SAHW31 PHFO 230354
MTRITO
METAR PHTO 230353Z 10008KT 10SM FEW013 BKN032 OVC043 25/23 A3003 RMK
AO2 RAB17E40 SLP167 P0003 T02500228





000
SAHW31 PHFO 230354
MTRITO
METAR PHTO 230353Z 10008KT 10SM FEW013 BKN032 OVC043 25/23 A3003 RMK
AO2 RAB17E40 SLP167 P0003 T02500228




000
SAHW31 PHFO 230351
MTRITO
SPECI PHTO 230350Z 09009KT 10SM FEW013 BKN034 OVC043 25/23 A3003 RMK
AO2 RAB17E40 P0003




000
SAHW31 PHFO 230351
MTRITO
SPECI PHTO 230350Z 09009KT 10SM FEW013 BKN034 OVC043 25/23 A3003 RMK
AO2 RAB17E40 P0003





000
SAHW31 PHFO 230351
MTRITO
SPECI PHTO 230350Z 09009KT 10SM FEW013 BKN034 OVC043 25/23 A3003 RMK
AO2 RAB17E40 P0003




000
SAHW31 PHFO 230351
MTRITO
SPECI PHTO 230350Z 09009KT 10SM FEW013 BKN034 OVC043 25/23 A3003 RMK
AO2 RAB17E40 P0003





000
SAHW31 PHFO 230338
MTRITO
SPECI PHTO 230337Z 08011KT 8SM -RA BKN015 BKN024 OVC032 26/24 A3002
RMK AO2 RAB17 P0003 T02560239




000
SAHW31 PHFO 230338
MTRITO
SPECI PHTO 230337Z 08011KT 8SM -RA BKN015 BKN024 OVC032 26/24 A3002
RMK AO2 RAB17 P0003 T02560239





000
SAHW31 PHFO 230338
MTRITO
SPECI PHTO 230337Z 08011KT 8SM -RA BKN015 BKN024 OVC032 26/24 A3002
RMK AO2 RAB17 P0003 T02560239




000
SAHW31 PHFO 230338
MTRITO
SPECI PHTO 230337Z 08011KT 8SM -RA BKN015 BKN024 OVC032 26/24 A3002
RMK AO2 RAB17 P0003 T02560239





000
SAHW31 PHFO 230327
MTRITO
SPECI PHTO 230326Z 07008KT 2 1/2SM RA BR SCT018 BKN031 OVC038 25/23
A3002 RMK AO2 RAB17 P0000 T02500233





000
SAHW31 PHFO 230327
MTRITO
SPECI PHTO 230326Z 07008KT 2 1/2SM RA BR SCT018 BKN031 OVC038 25/23
A3002 RMK AO2 RAB17 P0000 T02500233




000
SAHW31 PHFO 230327
MTRITO
SPECI PHTO 230326Z 07008KT 2 1/2SM RA BR SCT018 BKN031 OVC038 25/23
A3002 RMK AO2 RAB17 P0000 T02500233




000
SAHW31 PHFO 230327
MTRITO
SPECI PHTO 230326Z 07008KT 2 1/2SM RA BR SCT018 BKN031 OVC038 25/23
A3002 RMK AO2 RAB17 P0000 T02500233





000
SAHW31 PHFO 230321
MTRITO
SPECI PHTO 230320Z 08012G18KT 7SM -RA BKN018 BKN025 OVC036 26/23
A3002 RMK AO2 RAB17 P0000 T02560228




000
SAHW31 PHFO 230321
MTRITO
SPECI PHTO 230320Z 08012G18KT 7SM -RA BKN018 BKN025 OVC036 26/23
A3002 RMK AO2 RAB17 P0000 T02560228





000
SAHW31 PHFO 230255
MTRITO
METAR PHTO 230253Z 10009KT 10SM FEW017 SCT026 OVC037 27/23 A3001 RMK
AO2 SLP162 60000 T02670233 53001




000
SAHW31 PHFO 230215
MTRITO
SPECI PHTO 230214Z 08011KT 10SM FEW017 SCT023 OVC035 27/23 A3001 RMK
AO2 T02670228





000
SAHW31 PHFO 230215
MTRITO
SPECI PHTO 230214Z 08011KT 10SM FEW017 SCT023 OVC035 27/23 A3001 RMK
AO2 T02670228




000
SAHW31 PHFO 230154
MTRITO
METAR PHTO 230153Z 07012KT 10SM SCT017 BKN023 OVC034 27/23 A3001 RMK
AO2 RAE16 SLP160 P0000 T02670233





000
SAHW31 PHFO 230154
MTRITO
METAR PHTO 230153Z 07012KT 10SM SCT017 BKN023 OVC034 27/23 A3001 RMK
AO2 RAE16 SLP160 P0000 T02670233




000
SAHW31 PHFO 230122
MTRITO
SPECI PHTO 230121Z 08007KT 10SM FEW015 BKN030 OVC036 26/23 A3001 RMK
AO2 RAE16 P0000 T02610233




000
SAHW31 PHFO 230122
MTRITO
SPECI PHTO 230121Z 08007KT 10SM FEW015 BKN030 OVC036 26/23 A3001 RMK
AO2 RAE16 P0000 T02610233





000
SAHW31 PHFO 230054
MTRITO
METAR PHTO 230053Z 05005KT 9SM -RA SCT017 BKN027 OVC031 26/23 A3001
RMK AO2 RAB47 SLP162 P0000 T02610233





000
SAHW31 PHFO 230054
MTRITO
METAR PHTO 230053Z 05005KT 9SM -RA SCT017 BKN027 OVC031 26/23 A3001
RMK AO2 RAB47 SLP162 P0000 T02610233




000
SAHW31 PHFO 230052
MTRITO
SPECI PHTO 230050Z 05008KT 9SM -RA SCT017 BKN027 OVC031 27/23 A3001
RMK AO2 RAB47 P0000




000
SAHW31 PHFO 230052
MTRITO
SPECI PHTO 230050Z 05008KT 9SM -RA SCT017 BKN027 OVC031 27/23 A3001
RMK AO2 RAB47 P0000





000
SAHW31 PHFO 230041
MTRITO
SPECI PHTO 230040Z 08009KT 10SM FEW017 BKN030 OVC036 27/23 A3001 RMK
AO2 T02720228





000
SAHW31 PHFO 230041
MTRITO
SPECI PHTO 230040Z 08009KT 10SM FEW017 BKN030 OVC036 27/23 A3001 RMK
AO2 T02720228




000
SAHW31 PHFO 230030
MTRITO
SPECI PHTO 230029Z 08012KT 10SM SCT017 BKN022 OVC036 27/22 A3001 RMK
AO2 T02720222




000
SAHW31 PHFO 230030
MTRITO
SPECI PHTO 230029Z 08012KT 10SM SCT017 BKN022 OVC036 27/22 A3001 RMK
AO2 T02720222





000
SAHW31 PHFO 230009
MTRITO
SPECI PHTO 230008Z 09007KT 10SM SCT017 BKN030 OVC035 27/23 A3001 RMK
AO2 T02720233




000
SAHW31 PHFO 222354
MTRITO
METAR PHTO 222353Z 07009KT 10SM SCT017 BKN022 OVC033 28/23 A3001 RMK
AO2 SLP161 60000 T02780233 10289 20256 56009





000
SAHW31 PHFO 222354
MTRITO
METAR PHTO 222353Z 07009KT 10SM SCT017 BKN022 OVC033 28/23 A3001 RMK
AO2 SLP161 60000 T02780233 10289 20256 56009




000
SAHW31 PHFO 222342
MTRITO
SPECI PHTO 222341Z 07009KT 10SM SCT019 OVC029 28/23 A3001 RMK AO2
T02780233




000
SAHW31 PHFO 222342
MTRITO
SPECI PHTO 222341Z 07009KT 10SM SCT019 OVC029 28/23 A3001 RMK AO2
T02780233





000
SAHW31 PHFO 222320
MTRITO
SPECI PHTO 222319Z 11009KT 10SM SCT017 OVC032 27/23 A3002 RMK AO2
T02720233




000
SAHW31 PHFO 222320
MTRITO
SPECI PHTO 222319Z 11009KT 10SM SCT017 OVC032 27/23 A3002 RMK AO2
T02720233





000
SAHW31 PHFO 222254
MTRITO
METAR PHTO 222253Z 10010KT 10SM BKN017 BKN027 OVC032 27/23 A3001 RMK
AO2 RAE00B36E48 SLP162 P0000 T02670233





000
SAHW31 PHFO 222254
MTRITO
METAR PHTO 222253Z 10010KT 10SM BKN017 BKN027 OVC032 27/23 A3001 RMK
AO2 RAE00B36E48 SLP162 P0000 T02670233




000
SAHW31 PHFO 222241
MTRITO
SPECI PHTO 222240Z 08011KT 8SM -RA BKN017 BKN021 BKN029 27/23 A3002
RMK AO2 RAE00B36 P0000 T02670233




000
SAHW31 PHFO 222241
MTRITO
SPECI PHTO 222240Z 08011KT 8SM -RA BKN017 BKN021 BKN029 27/23 A3002
RMK AO2 RAE00B36 P0000 T02670233





000
SAHW31 PHFO 222210
MTRITO
SPECI PHTO 222209Z 10008KT 10SM FEW015 BKN038 OVC045 27/23 A3003 RMK
AO2 RAE00 P0000 T02720233





000
SAHW31 PHFO 222210
MTRITO
SPECI PHTO 222209Z 10008KT 10SM FEW015 BKN038 OVC045 27/23 A3003 RMK
AO2 RAE00 P0000 T02720233




000
SAHW31 PHFO 222155
MTRITO
METAR PHTO 222153Z 07009KT 10SM -RA SCT014 BKN025 OVC046 27/23 A3003
RMK AO2 RAB53 SLP168 P0000 T02720233




000
SAHW31 PHFO 222155
MTRITO
METAR PHTO 222153Z 07009KT 10SM -RA SCT014 BKN025 OVC046 27/23 A3003
RMK AO2 RAB53 SLP168 P0000 T02720233





000
SAHW31 PHFO 222133
MTRITO
SPECI PHTO 222132Z 06010KT 10SM FEW008 SCT015 OVC050 27/24 A3004 RMK
AO2 T02720239




000
SAHW31 PHFO 222133
MTRITO
SPECI PHTO 222132Z 06010KT 10SM FEW008 SCT015 OVC050 27/24 A3004 RMK
AO2 T02720239





000
SAHW31 PHFO 222111
MTRITO
SPECI PHTO 222109Z 06008KT 10SM FEW008 BKN015 OVC055 27/23 A3004 RMK
AO2 T02720233




000
SAHW31 PHFO 222111
MTRITO
SPECI PHTO 222109Z 06008KT 10SM FEW008 BKN015 OVC055 27/23 A3004 RMK
AO2 T02720233





000
SAHW31 PHFO 222102
MTRITO
SPECI PHTO 222101Z 05010KT 10SM FEW008 SCT015 OVC041 27/24 A3004 RMK
AO2 T02670239




000
SAHW31 PHFO 222102
MTRITO
SPECI PHTO 222101Z 05010KT 10SM FEW008 SCT015 OVC041 27/24 A3004 RMK
AO2 T02670239





000
SAHW31 PHFO 222054
MTRITO
METAR PHTO 222053Z 06010KT 10SM SCT014 BKN020 OVC041 27/24 A3004 RMK
AO2 SLP170 T02720239 51007




000
SAHW31 PHFO 222054
MTRITO
METAR PHTO 222053Z 06010KT 10SM SCT014 BKN020 OVC041 27/24 A3004 RMK
AO2 SLP170 T02720239 51007





000
SAHW31 PHFO 222047
MTRITO
SPECI PHTO 222046Z 07011KT 10SM BKN014 OVC020 27/24 A3004 RMK AO2
T02720239





000
SAHW31 PHFO 222047
MTRITO
SPECI PHTO 222046Z 07011KT 10SM BKN014 OVC020 27/24 A3004 RMK AO2
T02720239




000
SAHW31 PHFO 221954
MTRITO
METAR PHTO 221953Z 09006KT 10SM BKN015 BKN022 OVC039 28/23 A3004 RMK
AO2 SLP170 T02780233




000
SAHW31 PHFO 221937
MTRITO
SPECI PHTO 221936Z 10006KT 10SM SCT015 BKN021 OVC050 27/23 A3004 RMK
AO2 T02720233





000
SAHW31 PHFO 221937
MTRITO
SPECI PHTO 221936Z 10006KT 10SM SCT015 BKN021 OVC050 27/23 A3004 RMK
AO2 T02720233




000
SAHW31 PHFO 221854
MTRITO
METAR PHTO 221853Z 06006KT 10SM FEW015 OVC042 27/23 A3003 RMK AO2
SLP167 T02720233





000
SAHW31 PHFO 221854
MTRITO
METAR PHTO 221853Z 06006KT 10SM FEW015 OVC042 27/23 A3003 RMK AO2
SLP167 T02720233




000
SAHW31 PHFO 221754
MTRITO
METAR PHTO 221753Z 00000KT 10SM BKN044 BKN150 BKN220 26/22 A3002 RMK
AO2 SLP163 T02560217 10256 20222 53014





000
SAHW31 PHFO 221754
MTRITO
METAR PHTO 221753Z 00000KT 10SM BKN044 BKN150 BKN220 26/22 A3002 RMK
AO2 SLP163 T02560217 10256 20222 53014




000
SAHW31 PHFO 221654
MTRITO
METAR PHTO 221653Z 20003KT 10SM BKN038 BKN120 BKN220 24/21 A3000 RMK
AO2 SLP158 T02390211





000
SAHW31 PHFO 221654
MTRITO
METAR PHTO 221653Z 20003KT 10SM BKN038 BKN120 BKN220 24/21 A3000 RMK
AO2 SLP158 T02390211




000
SAHW31 PHFO 221554
MTRITO
METAR PHTO 221553Z 22005KT 10SM SCT036 BKN120 BKN220 22/21 A2999 RMK
AO2 SLP153 T02220211




000
SAHW31 PHFO 221554
MTRITO
METAR PHTO 221553Z 22005KT 10SM SCT036 BKN120 BKN220 22/21 A2999 RMK
AO2 SLP153 T02220211





000
SAHW31 PHFO 221454
MTRITO
METAR PHTO 221453Z 21003KT 10SM FEW044 23/21 A2997 RMK AO2 SLP149
T02280206 56004




000
SAHW31 PHFO 221454
MTRITO
METAR PHTO 221453Z 21003KT 10SM FEW044 23/21 A2997 RMK AO2 SLP149
T02280206 56004





000
SAHW31 PHFO 221354
MTRITO
METAR PHTO 221353Z 00000KT 10SM BKN044 23/21 A2998 RMK AO2 SLP150
T02280211




000
SAHW31 PHFO 221354
MTRITO
METAR PHTO 221353Z 00000KT 10SM BKN044 23/21 A2998 RMK AO2 SLP150
T02280211





000
SAHW31 PHFO 221254
MTRITO
METAR PHTO 221253Z 21004KT 10SM CLR 23/21 A2997 RMK AO2 SLP148
T02280211




000
SAHW31 PHFO 221254
MTRITO
METAR PHTO 221253Z 21004KT 10SM CLR 23/21 A2997 RMK AO2 SLP148
T02280211





000
SAHW31 PHFO 221154
MTRITO
METAR PHTO 221153Z 25005KT 10SM SCT045 23/22 A2999 RMK AO2 SLP152
60002 70007 T02330217 10256 20233 58018





000
SAHW31 PHFO 221154
MTRITO
METAR PHTO 221153Z 25005KT 10SM SCT045 23/22 A2999 RMK AO2 SLP152
60002 70007 T02330217 10256 20233 58018




000
SAHW31 PHFO 221054
MTRITO
METAR PHTO 221053Z 19004KT 10SM SCT045 24/22 A3000 RMK AO2 SLP158
T02390217





000
SAHW31 PHFO 221054
MTRITO
METAR PHTO 221053Z 19004KT 10SM SCT045 24/22 A3000 RMK AO2 SLP158
T02390217




000
SAHW31 PHFO 220954
MTRITO
METAR PHTO 220953Z AUTO 19004KT 10SM CLR 24/22 A3002 RMK AO2 SLP166
T02390217 403000211 TSNO





000
SAHW31 PHFO 220954
MTRITO
METAR PHTO 220953Z AUTO 19004KT 10SM CLR 24/22 A3002 RMK AO2 SLP166
T02390217 403000211 TSNO




000
SAHW31 PHFO 220854
MTRITO
METAR PHTO 220853Z AUTO 23004KT 10SM BKN042 24/23 A3004 RMK AO2
RAE06 SLP171 P0002 60002 T02440228 50003 TSNO





000
SAHW31 PHFO 220854
MTRITO
METAR PHTO 220853Z AUTO 23004KT 10SM BKN042 24/23 A3004 RMK AO2
RAE06 SLP171 P0002 60002 T02440228 50003 TSNO




000
SAHW31 PHFO 220820
MTRITO
SPECI PHTO 220818Z AUTO 21005KT 10SM FEW017 FEW023 OVC036 24/23
A3005 RMK AO2 RAE06 P0002 T02440233 TSNO




000
SAHW31 PHFO 220820
MTRITO
SPECI PHTO 220818Z AUTO 21005KT 10SM FEW017 FEW023 OVC036 24/23
A3005 RMK AO2 RAE06 P0002 T02440233 TSNO





000
SAHW31 PHFO 220754
MTRITO
METAR PHTO 220753Z 20006KT 5SM -RA BR FEW016 BKN027 OVC036 25/24
A3004 RMK AO2 RAB46 SLP171 P0000 T02500239





000
SAHW31 PHFO 220754
MTRITO
METAR PHTO 220753Z 20006KT 5SM -RA BR FEW016 BKN027 OVC036 25/24
A3004 RMK AO2 RAB46 SLP171 P0000 T02500239




000
SAHW31 PHFO 220752
MTRITO
SPECI PHTO 220751Z 18004KT 7SM -RA SCT018 BKN022 OVC036 25/24 A3004
RMK AO2 RAB46 P0000





000
SAHW31 PHFO 220654
MTRITO
METAR PHTO 220653Z 22003KT 10SM FEW060 25/24 A3003 RMK AO2 SLP167
T02500239





000
SAHW31 PHFO 220654
MTRITO
METAR PHTO 220653Z 22003KT 10SM FEW060 25/24 A3003 RMK AO2 SLP167
T02500239




000
SAHW31 PHFO 220627
MTRITO
SPECI PHTO 220626Z 22003KT 10SM FEW017 SCT023 BKN038 25/24 A3002 RMK
AO2 T02500239




000
SAHW31 PHFO 220627
MTRITO
SPECI PHTO 220626Z 22003KT 10SM FEW017 SCT023 BKN038 25/24 A3002 RMK
AO2 T02500239





000
SAHW31 PHFO 220554
MTRITO
METAR PHTO 220553Z 00000KT 10SM SCT017 BKN022 OVC042 25/24 A3001 RMK
AO2 RAE10 SLP160 P0001 60004 T02500239 10278 20250 51014





000
SAHW31 PHFO 220455
MTRITO
METAR PHTO 220453Z 23004KT 8SM -RA SCT015 BKN023 OVC030 25/24 A3000
RMK AO2 RAE14B34 SLP156 P0000 T02500239





000
SAHW31 PHFO 220455
MTRITO
METAR PHTO 220453Z 23004KT 8SM -RA SCT015 BKN023 OVC030 25/24 A3000
RMK AO2 RAE14B34 SLP156 P0000 T02500239




000
SAHW31 PHFO 220355
MTRITO
METAR PHTO 220353Z 23005KT 8SM -RA FEW036 BKN046 OVC060 25/24 A2997
RMK AO2 RAB15 SLP147 P0003 T02500239





000
SAHW31 PHFO 220335
MTRITO
SPECI PHTO 220334Z 18006KT 4SM -RA BR SCT018 BKN039 OVC055 25/23
A2996 RMK AO2 RAB15 P0001 T02500233





000
SAHW31 PHFO 220335
MTRITO
SPECI PHTO 220334Z 18006KT 4SM -RA BR SCT018 BKN039 OVC055 25/23
A2996 RMK AO2 RAB15 P0001 T02500233




000
SAHW31 PHFO 220320
MTRITO
SPECI PHTO 220319Z 15012G17KT 5SM RA BR BKN018 BKN025 OVC050 26/23
A2996 RMK AO2 RAB15 P0000 T02560233





000
SAHW31 PHFO 220320
MTRITO
SPECI PHTO 220319Z 15012G17KT 5SM RA BR BKN018 BKN025 OVC050 26/23
A2996 RMK AO2 RAB15 P0000 T02560233




000
SAHW31 PHFO 220254
MTRITO
METAR PHTO 220253Z 18006KT 10SM OVC048 26/23 A2994 RMK AO2 SLP138
60000 T02610233 53001





000
SAHW31 PHFO 220254
MTRITO
METAR PHTO 220253Z 18006KT 10SM OVC048 26/23 A2994 RMK AO2 SLP138
60000 T02610233 53001




000
SAHW31 PHFO 220154
MTRITO
METAR PHTO 220153Z 14012KT 10SM FEW042 OVC050 27/24 A2993 RMK AO2
RAB10E48 SLP133 P0000 T02670239





000
SAHW31 PHFO 220154
MTRITO
METAR PHTO 220153Z 14012KT 10SM FEW042 OVC050 27/24 A2993 RMK AO2
RAB10E48 SLP133 P0000 T02670239




000
SAHW31 PHFO 220054
MTRITO
METAR PHTO 220053Z 13011KT 10SM FEW011 BKN055 OVC250 27/24 A2994 RMK
AO2 SLP136 T02720244




000
SAHW31 PHFO 220054
MTRITO
METAR PHTO 220053Z 13011KT 10SM FEW011 BKN055 OVC250 27/24 A2994 RMK
AO2 SLP136 T02720244





000
SAHW31 PHFO 212354
MTRITO
METAR PHTO 212353Z 13019G23KT 10SM SCT050 BKN250 28/24 A2994 RMK AO2
SLP137 T02780244 10300 20233 56010




000
SAHW31 PHFO 212354
MTRITO
METAR PHTO 212353Z 13019G23KT 10SM SCT050 BKN250 28/24 A2994 RMK AO2
SLP137 T02780244 10300 20233 56010





000
SAHW31 PHFO 212254
MTRITO
METAR PHTO 212253Z 11012KT 10SM FEW020 SCT045 BKN250 29/24 A2995 RMK
AO2 SLP139 T02940244




000
SAHW31 PHFO 212254
MTRITO
METAR PHTO 212253Z 11012KT 10SM FEW020 SCT045 BKN250 29/24 A2995 RMK
AO2 SLP139 T02940244





000
SAHW31 PHFO 212154
MTRITO
METAR PHTO 212153Z 13008KT 10SM FEW020 SCT045 BKN250 29/24 A2995 RMK
AO2 SLP141 T02940244




000
SAHW31 PHFO 212154
MTRITO
METAR PHTO 212153Z 13008KT 10SM FEW020 SCT045 BKN250 29/24 A2995 RMK
AO2 SLP141 T02940244





000
SAHW31 PHFO 212054
MTRITO
METAR PHTO 212053Z 16007KT 10SM FEW045 SCT130 BKN250 29/24 A2997 RMK
AO2 SLP147 T02890239 50002




000
SAHW31 PHFO 212054
MTRITO
METAR PHTO 212053Z 16007KT 10SM FEW045 SCT130 BKN250 29/24 A2997 RMK
AO2 SLP147 T02890239 50002





000
SAHW31 PHFO 211954
MTRITO
METAR PHTO 211953Z 14006KT 10SM BKN036 OVC130 27/24 A2998 RMK AO2
SLP150 T02720239




000
SAHW31 PHFO 211854
MTRITO
METAR PHTO 211853Z VRB03KT 10SM SCT030 BKN150 27/22 A2998 RMK AO2
SLP151 T02670222




000
SAHW31 PHFO 211854
MTRITO
METAR PHTO 211853Z VRB03KT 10SM SCT030 BKN150 27/22 A2998 RMK AO2
SLP151 T02670222





000
SAHW31 PHFO 211754
MTRITO
METAR PHTO 211753Z 00000KT 10SM FEW045 BKN150 BKN220 23/22 A2997 RMK
AO2 SLP146 60001 T02330217 10233 20211 53012 $




000
SAHW31 PHFO 211754
MTRITO
METAR PHTO 211753Z 00000KT 10SM FEW045 BKN150 BKN220 23/22 A2997 RMK
AO2 SLP146 60001 T02330217 10233 20211 53012 $





000
SAHW31 PHFO 211654
MTRITO
METAR PHTO 211653Z 21003KT 10SM FEW045 BKN150 BKN220 22/21 A2995 RMK
AO2 SLP141 T02170211 $





000
SAHW31 PHFO 211654
MTRITO
METAR PHTO 211653Z 21003KT 10SM FEW045 BKN150 BKN220 22/21 A2995 RMK
AO2 SLP141 T02170211 $




000
SAHW31 PHFO 211554
MTRITO
METAR PHTO 211553Z 00000KT 10SM SCT048 BKN080 BKN220 21/21 A2993 RMK
AO2 SLP134 T02110206 $




000
SAHW31 PHFO 211554
MTRITO
METAR PHTO 211553Z 00000KT 10SM SCT048 BKN080 BKN220 21/21 A2993 RMK
AO2 SLP134 T02110206 $





000
SAHW31 PHFO 211455
MTRITO
METAR PHTO 211453Z 25005KT 10SM SCT028 OVC045 21/21 A2993 RMK AO2
SLP134 60001 T02110211 55007 $




000
SAHW31 PHFO 211401
MTRITO
SPECI PHTO 211400Z 23004KT 10SM SCT028 OVC045 22/22 A2993 RMK AO2
T02170217 $




000
SAHW31 PHFO 211401
MTRITO
SPECI PHTO 211400Z 23004KT 10SM SCT028 OVC045 22/22 A2993 RMK AO2
T02170217 $





000
SAHW31 PHFO 211354
MTRITO
METAR PHTO 211353Z 21003KT 10SM BKN028 OVC040 22/22 A2993 RMK AO2
SLP133 T02170217 $




000
SAHW31 PHFO 211354
MTRITO
METAR PHTO 211353Z 21003KT 10SM BKN028 OVC040 22/22 A2993 RMK AO2
SLP133 T02170217 $





000
SAHW31 PHFO 211254
MTRITO
METAR PHTO 211253Z 00000KT 10SM BKN023 22/22 A2994 RMK AO2 RAE1157
SLP137 P0001 T02170217 $




000
SAHW31 PHFO 211254
MTRITO
METAR PHTO 211253Z 00000KT 10SM BKN023 22/22 A2994 RMK AO2 RAE1157
SLP137 P0001 T02170217 $





000
SAHW31 PHFO 211154
MTRITO
METAR PHTO 211153Z 22003KT 9SM -RA OVC027 22/22 A2995 RMK AO2
RAE14B40 SLP140 P0001 60182 70285 T02170217 10250 20217 58016 $




000
SAHW31 PHFO 211154
MTRITO
METAR PHTO 211153Z 22003KT 9SM -RA OVC027 22/22 A2995 RMK AO2
RAE14B40 SLP140 P0001 60182 70285 T02170217 10250 20217 58016 $





000
SAHW31 PHFO 211054
MTRITO
METAR PHTO 211053Z 22003KT 4SM -RA BR OVC027 22/22 A2997 RMK AO2
SLP148 P0053 T02170217 $




000
SAHW31 PHFO 211054
MTRITO
METAR PHTO 211053Z 22003KT 4SM -RA BR OVC027 22/22 A2997 RMK AO2
SLP148 P0053 T02170217 $





    US Dept of Commerce
    National Oceanic and Atmospheric Administration
    National Weather Service
    1325 East West Highway
    Silver Spring, MD 20910
    Page Author: NWS Internet Services Team
Disclaimer
Information Quality
Credits
Glossary
Privacy Policy
Freedom of Information Act (FOIA)
About Us
Career Opportunities